sensor_id;sensor_type;location;lat;lon;timestamp;P1;durP1;ratioP1;P2;durP2;ratioP2
72483;SDS011;74199;52.014;5.430;2023-11-22T00:01:21;10.52;;;6.47;;
72483;SDS011;74199;52.014;5.430;2023-11-22T00:03:48;9.35;;;5.65;;
72483;SDS011;74199;52.014;5.430;2023-11-22T00:06:16;13.20;;;5.70;;
72483;SDS011;74199;52.014;5.430;2023-11-22T00:08:46;11.05;;;5.72;;
72483;SDS011;74199;52.014;5.430;2023-11-22T00:11:13;11.05;;;5.95;;
72483;SDS011;74199;52.014;5.430;2023-11-22T00:13:40;12.20;;;5.72;;
72483;SDS011;74199;52.014;5.430;2023-11-22T00:16:08;10.65;;;5.85;;
72483;SDS011;74199;52.014;5.430;2023-11-22T00:18:35;9.60;;;6.05;;
72483;SDS011;74199;52.014;5.430;2023-11-22T00:21:05;9.00;;;5.68;;
72483;SDS011;74199;52.014;5.430;2023-11-22T00:23:32;12.77;;;5.72;;
72483;SDS011;74199;52.014;5.430;2023-11-22T00:25:59;9.02;;;6.00;;
72483;SDS011;74199;52.014;5.430;2023-11-22T00:28:26;9.50;;;5.93;;
72483;SDS011;74199;52.014;5.430;2023-11-22T00:30:53;10.60;;;5.50;;
72483;SDS011;74199;52.014;5.430;2023-11-22T00:33:20;9.35;;;5.50;;
72483;SDS011;74199;52.014;5.430;2023-11-22T00:35:47;10.02;;;5.60;;
72483;SDS011;74199;52.014;5.430;2023-11-22T00:38:14;8.18;;;4.97;;
72483;SDS011;74199;52.014;5.430;2023-11-22T00:40:41;9.98;;;5.03;;
72483;SDS011;74199;52.014;5.430;2023-11-22T00:43:08;8.07;;;5.60;;
72483;SDS011;74199;52.014;5.430;2023-11-22T00:45:35;9.07;;;5.57;;
72483;SDS011;74199;52.014;5.430;2023-11-22T00:48:02;9.65;;;5.82;;
72483;SDS011;74199;52.014;5.430;2023-11-22T00:50:29;10.35;;;5.45;;
72483;SDS011;74199;52.014;5.430;2023-11-22T00:52:56;9.77;;;5.45;;
72483;SDS011;74199;52.014;5.430;2023-11-22T00:55:23;9.95;;;5.57;;
72483;SDS011;74199;52.014;5.430;2023-11-22T00:57:50;11.35;;;5.55;;
72483;SDS011;74199;52.014;5.430;2023-11-22T01:00:17;9.30;;;5.60;;
72483;SDS011;74199;52.014;5.430;2023-11-22T01:02:44;8.65;;;5.20;;
72483;SDS011;74199;52.014;5.430;2023-11-22T01:05:11;7.65;;;5.13;;
72483;SDS011;74199;52.014;5.430;2023-11-22T01:07:39;12.10;;;5.60;;
72483;SDS011;74199;52.014;5.430;2023-11-22T01:10:07;7.72;;;5.57;;
72483;SDS011;74199;52.014;5.430;2023-11-22T01:12:34;9.85;;;6.05;;
72483;SDS011;74199;52.014;5.430;2023-11-22T01:15:01;8.30;;;5.70;;
72483;SDS011;74199;52.014;5.430;2023-11-22T01:17:29;8.52;;;5.35;;
72483;SDS011;74199;52.014;5.430;2023-11-22T01:20:00;8.45;;;5.18;;
72483;SDS011;74199;52.014;5.430;2023-11-22T01:22:28;10.30;;;4.88;;
72483;SDS011;74199;52.014;5.430;2023-11-22T01:24:55;6.82;;;5.10;;
72483;SDS011;74199;52.014;5.430;2023-11-22T01:27:22;6.80;;;4.72;;
72483;SDS011;74199;52.014;5.430;2023-11-22T01:29:50;6.40;;;4.50;;
72483;SDS011;74199;52.014;5.430;2023-11-22T01:32:17;9.25;;;5.10;;
72483;SDS011;74199;52.014;5.430;2023-11-22T01:34:45;7.75;;;5.10;;
72483;SDS011;74199;52.014;5.430;2023-11-22T01:37:12;9.13;;;4.88;;
72483;SDS011;74199;52.014;5.430;2023-11-22T01:39:39;9.68;;;4.70;;
72483;SDS011;74199;52.014;5.430;2023-11-22T01:42:07;9.07;;;4.95;;
72483;SDS011;74199;52.014;5.430;2023-11-22T01:44:35;8.32;;;5.10;;
72483;SDS011;74199;52.014;5.430;2023-11-22T01:47:02;10.88;;;4.93;;
72483;SDS011;74199;52.014;5.430;2023-11-22T01:49:31;7.75;;;4.90;;
72483;SDS011;74199;52.014;5.430;2023-11-22T01:51:59;9.73;;;5.22;;
72483;SDS011;74199;52.014;5.430;2023-11-22T01:54:27;9.82;;;4.72;;
72483;SDS011;74199;52.014;5.430;2023-11-22T01:56:56;8.85;;;4.65;;
72483;SDS011;74199;52.014;5.430;2023-11-22T01:59:24;9.75;;;5.25;;
72483;SDS011;74199;52.014;5.430;2023-11-22T02:01:55;8.15;;;4.30;;
72483;SDS011;74199;52.014;5.430;2023-11-22T02:04:23;7.78;;;4.80;;
72483;SDS011;74199;52.014;5.430;2023-11-22T02:06:50;7.45;;;4.40;;
72483;SDS011;74199;52.014;5.430;2023-11-22T02:09:18;7.55;;;4.43;;
72483;SDS011;74199;52.014;5.430;2023-11-22T02:11:46;7.15;;;4.70;;
72483;SDS011;74199;52.014;5.430;2023-11-22T02:14:15;6.32;;;4.32;;
72483;SDS011;74199;52.014;5.430;2023-11-22T02:16:43;8.85;;;5.22;;
72483;SDS011;74199;52.014;5.430;2023-11-22T02:19:16;7.40;;;4.60;;
72483;SDS011;74199;52.014;5.430;2023-11-22T02:21:44;8.05;;;4.80;;
72483;SDS011;74199;52.014;5.430;2023-11-22T02:24:11;9.40;;;4.53;;
72483;SDS011;74199;52.014;5.430;2023-11-22T02:26:43;9.02;;;4.63;;
72483;SDS011;74199;52.014;5.430;2023-11-22T02:31:42;9.20;;;5.18;;
72483;SDS011;74199;52.014;5.430;2023-11-22T02:34:12;7.13;;;4.53;;
72483;SDS011;74199;52.014;5.430;2023-11-22T02:36:39;7.93;;;4.88;;
72483;SDS011;74199;52.014;5.430;2023-11-22T02:39:14;6.65;;;4.40;;
72483;SDS011;74199;52.014;5.430;2023-11-22T02:41:41;7.32;;;4.28;;
72483;SDS011;74199;52.014;5.430;2023-11-22T02:44:08;11.13;;;4.82;;
72483;SDS011;74199;52.014;5.430;2023-11-22T02:46:34;9.25;;;5.28;;
72483;SDS011;74199;52.014;5.430;2023-11-22T02:49:01;7.65;;;4.57;;
72483;SDS011;74199;52.014;5.430;2023-11-22T02:51:30;8.25;;;4.50;;
72483;SDS011;74199;52.014;5.430;2023-11-22T02:53:57;6.78;;;4.82;;
72483;SDS011;74199;52.014;5.430;2023-11-22T02:56:24;7.38;;;4.93;;
72483;SDS011;74199;52.014;5.430;2023-11-22T02:58:52;7.15;;;4.28;;
72483;SDS011;74199;52.014;5.430;2023-11-22T03:01:19;8.32;;;4.55;;
72483;SDS011;74199;52.014;5.430;2023-11-22T03:03:46;7.90;;;4.70;;
72483;SDS011;74199;52.014;5.430;2023-11-22T03:06:13;7.40;;;4.40;;
72483;SDS011;74199;52.014;5.430;2023-11-22T03:08:40;6.53;;;4.70;;
72483;SDS011;74199;52.014;5.430;2023-11-22T03:11:07;6.93;;;4.28;;
72483;SDS011;74199;52.014;5.430;2023-11-22T03:13:34;8.55;;;4.93;;
72483;SDS011;74199;52.014;5.430;2023-11-22T03:16:00;8.18;;;4.57;;
72483;SDS011;74199;52.014;5.430;2023-11-22T03:18:30;6.22;;;4.78;;
72483;SDS011;74199;52.014;5.430;2023-11-22T03:20:59;7.75;;;5.15;;
72483;SDS011;74199;52.014;5.430;2023-11-22T03:23:27;7.38;;;4.32;;
72483;SDS011;74199;52.014;5.430;2023-11-22T03:25:54;9.50;;;5.03;;
72483;SDS011;74199;52.014;5.430;2023-11-22T03:28:21;9.25;;;5.25;;
72483;SDS011;74199;52.014;5.430;2023-11-22T03:30:48;8.38;;;4.93;;
72483;SDS011;74199;52.014;5.430;2023-11-22T03:33:16;7.70;;;4.88;;
72483;SDS011;74199;52.014;5.430;2023-11-22T03:35:43;8.57;;;4.82;;
72483;SDS011;74199;52.014;5.430;2023-11-22T03:38:10;6.45;;;4.57;;
72483;SDS011;74199;52.014;5.430;2023-11-22T03:40:37;9.48;;;5.35;;
72483;SDS011;74199;52.014;5.430;2023-11-22T03:43:04;9.20;;;4.70;;
72483;SDS011;74199;52.014;5.430;2023-11-22T03:45:31;7.60;;;4.72;;
72483;SDS011;74199;52.014;5.430;2023-11-22T03:47:59;7.78;;;4.40;;
72483;SDS011;74199;52.014;5.430;2023-11-22T03:50:26;7.32;;;4.85;;
72483;SDS011;74199;52.014;5.430;2023-11-22T03:52:53;6.93;;;4.70;;
72483;SDS011;74199;52.014;5.430;2023-11-22T03:55:20;8.98;;;4.60;;
72483;SDS011;74199;52.014;5.430;2023-11-22T03:57:47;6.85;;;4.38;;
72483;SDS011;74199;52.014;5.430;2023-11-22T04:00:14;7.35;;;4.28;;
72483;SDS011;74199;52.014;5.430;2023-11-22T04:02:41;6.55;;;4.68;;
72483;SDS011;74199;52.014;5.430;2023-11-22T04:05:09;6.82;;;4.35;;
72483;SDS011;74199;52.014;5.430;2023-11-22T04:07:38;11.70;;;4.63;;
72483;SDS011;74199;52.014;5.430;2023-11-22T04:10:05;5.78;;;4.03;;
72483;SDS011;74199;52.014;5.430;2023-11-22T04:12:32;6.88;;;4.82;;
72483;SDS011;74199;52.014;5.430;2023-11-22T04:15:01;7.45;;;4.10;;
72483;SDS011;74199;52.014;5.430;2023-11-22T04:17:28;7.28;;;4.80;;
72483;SDS011;74199;52.014;5.430;2023-11-22T04:19:56;6.93;;;4.32;;
72483;SDS011;74199;52.014;5.430;2023-11-22T04:22:23;7.00;;;4.60;;
72483;SDS011;74199;52.014;5.430;2023-11-22T04:24:50;7.10;;;4.80;;
72483;SDS011;74199;52.014;5.430;2023-11-22T04:27:16;7.68;;;4.38;;
72483;SDS011;74199;52.014;5.430;2023-11-22T04:29:43;7.53;;;5.03;;
72483;SDS011;74199;52.014;5.430;2023-11-22T04:32:11;6.70;;;4.00;;
72483;SDS011;74199;52.014;5.430;2023-11-22T04:34:38;6.07;;;4.28;;
72483;SDS011;74199;52.014;5.430;2023-11-22T04:37:05;8.88;;;4.95;;
72483;SDS011;74199;52.014;5.430;2023-11-22T04:39:33;7.25;;;4.30;;
72483;SDS011;74199;52.014;5.430;2023-11-22T04:42:00;7.32;;;4.78;;
72483;SDS011;74199;52.014;5.430;2023-11-22T04:44:27;6.50;;;4.38;;
72483;SDS011;74199;52.014;5.430;2023-11-22T04:46:54;8.25;;;4.78;;
72483;SDS011;74199;52.014;5.430;2023-11-22T04:49:21;7.13;;;4.60;;
72483;SDS011;74199;52.014;5.430;2023-11-22T04:51:48;9.10;;;4.60;;
72483;SDS011;74199;52.014;5.430;2023-11-22T04:54:16;7.28;;;5.00;;
72483;SDS011;74199;52.014;5.430;2023-11-22T04:56:43;7.28;;;4.63;;
72483;SDS011;74199;52.014;5.430;2023-11-22T04:59:10;6.40;;;4.10;;
72483;SDS011;74199;52.014;5.430;2023-11-22T05:01:38;8.85;;;4.55;;
72483;SDS011;74199;52.014;5.430;2023-11-22T05:04:05;7.88;;;4.78;;
72483;SDS011;74199;52.014;5.430;2023-11-22T05:06:32;8.15;;;4.53;;
72483;SDS011;74199;52.014;5.430;2023-11-22T05:08:59;8.18;;;4.60;;
72483;SDS011;74199;52.014;5.430;2023-11-22T05:11:26;8.65;;;4.72;;
72483;SDS011;74199;52.014;5.430;2023-11-22T05:13:53;6.78;;;4.35;;
72483;SDS011;74199;52.014;5.430;2023-11-22T05:16:19;6.97;;;4.65;;
72483;SDS011;74199;52.014;5.430;2023-11-22T05:18:46;8.20;;;4.65;;
72483;SDS011;74199;52.014;5.430;2023-11-22T05:21:13;8.25;;;5.03;;
72483;SDS011;74199;52.014;5.430;2023-11-22T05:23:40;7.93;;;4.88;;
72483;SDS011;74199;52.014;5.430;2023-11-22T05:26:11;8.15;;;4.63;;
72483;SDS011;74199;52.014;5.430;2023-11-22T05:28:38;7.65;;;5.28;;
72483;SDS011;74199;52.014;5.430;2023-11-22T05:31:05;8.88;;;4.70;;
72483;SDS011;74199;52.014;5.430;2023-11-22T05:33:32;8.68;;;4.57;;
72483;SDS011;74199;52.014;5.430;2023-11-22T05:35:59;8.45;;;4.22;;
72483;SDS011;74199;52.014;5.430;2023-11-22T05:38:26;9.82;;;4.93;;
72483;SDS011;74199;52.014;5.430;2023-11-22T05:40:53;7.28;;;4.75;;
72483;SDS011;74199;52.014;5.430;2023-11-22T05:43:20;8.02;;;4.97;;
72483;SDS011;74199;52.014;5.430;2023-11-22T05:45:53;7.90;;;5.22;;
72483;SDS011;74199;52.014;5.430;2023-11-22T05:48:20;7.50;;;4.93;;
72483;SDS011;74199;52.014;5.430;2023-11-22T05:50:47;7.03;;;5.43;;
72483;SDS011;74199;52.014;5.430;2023-11-22T05:53:14;8.77;;;4.90;;
72483;SDS011;74199;52.014;5.430;2023-11-22T05:55:46;7.10;;;5.10;;
72483;SDS011;74199;52.014;5.430;2023-11-22T05:58:17;8.13;;;5.25;;
72483;SDS011;74199;52.014;5.430;2023-11-22T06:00:44;7.75;;;5.22;;
72483;SDS011;74199;52.014;5.430;2023-11-22T06:03:14;7.20;;;5.30;;
72483;SDS011;74199;52.014;5.430;2023-11-22T06:05:41;8.02;;;4.70;;
72483;SDS011;74199;52.014;5.430;2023-11-22T06:08:08;7.45;;;4.97;;
72483;SDS011;74199;52.014;5.430;2023-11-22T06:10:37;8.48;;;5.13;;
72483;SDS011;74199;52.014;5.430;2023-11-22T06:13:08;9.02;;;4.90;;
72483;SDS011;74199;52.014;5.430;2023-11-22T06:15:35;6.65;;;4.75;;
72483;SDS011;74199;52.014;5.430;2023-11-22T06:18:02;6.28;;;4.53;;
72483;SDS011;74199;52.014;5.430;2023-11-22T06:20:29;7.22;;;4.60;;
72483;SDS011;74199;52.014;5.430;2023-11-22T06:22:56;8.55;;;5.00;;
72483;SDS011;74199;52.014;5.430;2023-11-22T06:25:23;8.15;;;5.18;;
72483;SDS011;74199;52.014;5.430;2023-11-22T06:27:50;8.35;;;5.40;;
72483;SDS011;74199;52.014;5.430;2023-11-22T06:30:17;8.43;;;5.78;;
72483;SDS011;74199;52.014;5.430;2023-11-22T06:32:44;8.13;;;5.18;;
72483;SDS011;74199;52.014;5.430;2023-11-22T06:35:11;9.80;;;5.18;;
72483;SDS011;74199;52.014;5.430;2023-11-22T06:37:41;9.55;;;5.85;;
72483;SDS011;74199;52.014;5.430;2023-11-22T06:40:08;11.18;;;5.47;;
72483;SDS011;74199;52.014;5.430;2023-11-22T06:42:35;9.35;;;5.47;;
72483;SDS011;74199;52.014;5.430;2023-11-22T06:45:03;13.98;;;5.82;;
72483;SDS011;74199;52.014;5.430;2023-11-22T06:47:33;9.88;;;6.40;;
72483;SDS011;74199;52.014;5.430;2023-11-22T06:50:00;9.50;;;6.03;;
72483;SDS011;74199;52.014;5.430;2023-11-22T06:52:27;13.10;;;5.97;;
72483;SDS011;74199;52.014;5.430;2023-11-22T06:54:54;8.43;;;5.72;;
72483;SDS011;74199;52.014;5.430;2023-11-22T06:57:21;9.80;;;5.68;;
72483;SDS011;74199;52.014;5.430;2023-11-22T06:59:57;7.80;;;5.45;;
72483;SDS011;74199;52.014;5.430;2023-11-22T07:02:24;12.80;;;5.80;;
72483;SDS011;74199;52.014;5.430;2023-11-22T07:04:52;14.18;;;6.07;;
72483;SDS011;74199;52.014;5.430;2023-11-22T07:07:19;9.43;;;6.47;;
72483;SDS011;74199;52.014;5.430;2023-11-22T07:09:46;9.27;;;6.35;;
72483;SDS011;74199;52.014;5.430;2023-11-22T07:12:13;9.60;;;6.28;;
72483;SDS011;74199;52.014;5.430;2023-11-22T07:14:40;9.82;;;6.70;;
72483;SDS011;74199;52.014;5.430;2023-11-22T07:17:09;8.95;;;5.65;;
72483;SDS011;74199;52.014;5.430;2023-11-22T07:19:37;9.85;;;6.53;;
72483;SDS011;74199;52.014;5.430;2023-11-22T07:22:04;12.82;;;8.88;;
72483;SDS011;74199;52.014;5.430;2023-11-22T07:24:43;10.27;;;6.45;;
72483;SDS011;74199;52.014;5.430;2023-11-22T07:27:10;8.60;;;6.05;;
72483;SDS011;74199;52.014;5.430;2023-11-22T07:29:42;11.98;;;7.05;;
72483;SDS011;74199;52.014;5.430;2023-11-22T07:32:10;10.93;;;6.85;;
72483;SDS011;74199;52.014;5.430;2023-11-22T07:34:37;12.85;;;7.00;;
72483;SDS011;74199;52.014;5.430;2023-11-22T07:37:06;9.77;;;6.82;;
72483;SDS011;74199;52.014;5.430;2023-11-22T07:39:34;16.80;;;7.07;;
72483;SDS011;74199;52.014;5.430;2023-11-22T07:42:05;18.75;;;7.43;;
72483;SDS011;74199;52.014;5.430;2023-11-22T07:44:35;9.02;;;6.25;;
72483;SDS011;74199;52.014;5.430;2023-11-22T07:47:04;12.55;;;6.53;;
72483;SDS011;74199;52.014;5.430;2023-11-22T07:49:38;10.02;;;6.47;;
72483;SDS011;74199;52.014;5.430;2023-11-22T07:52:05;16.13;;;6.97;;
72483;SDS011;74199;52.014;5.430;2023-11-22T07:54:33;11.82;;;7.13;;
72483;SDS011;74199;52.014;5.430;2023-11-22T07:57:02;12.13;;;6.70;;
72483;SDS011;74199;52.014;5.430;2023-11-22T07:59:29;9.90;;;6.47;;
72483;SDS011;74199;52.014;5.430;2023-11-22T08:01:56;10.50;;;6.95;;
72483;SDS011;74199;52.014;5.430;2023-11-22T08:04:23;10.95;;;6.50;;
72483;SDS011;74199;52.014;5.430;2023-11-22T08:06:51;11.55;;;7.18;;
72483;SDS011;74199;52.014;5.430;2023-11-22T08:09:18;11.20;;;6.72;;
72483;SDS011;74199;52.014;5.430;2023-11-22T08:11:46;9.65;;;6.35;;
72483;SDS011;74199;52.014;5.430;2023-11-22T08:14:14;13.45;;;6.78;;
72483;SDS011;74199;52.014;5.430;2023-11-22T08:16:42;11.40;;;6.70;;
72483;SDS011;74199;52.014;5.430;2023-11-22T08:19:09;18.75;;;7.03;;
72483;SDS011;74199;52.014;5.430;2023-11-22T08:21:37;14.43;;;7.32;;
72483;SDS011;74199;52.014;5.430;2023-11-22T08:24:05;10.55;;;7.00;;
72483;SDS011;74199;52.014;5.430;2023-11-22T08:26:32;14.88;;;7.60;;
72483;SDS011;74199;52.014;5.430;2023-11-22T08:28:59;11.35;;;6.85;;
72483;SDS011;74199;52.014;5.430;2023-11-22T08:31:26;11.40;;;6.80;;
72483;SDS011;74199;52.014;5.430;2023-11-22T08:33:53;11.48;;;6.75;;
72483;SDS011;74199;52.014;5.430;2023-11-22T08:36:20;11.98;;;7.45;;
72483;SDS011;74199;52.014;5.430;2023-11-22T08:38:47;11.75;;;7.13;;
72483;SDS011;74199;52.014;5.430;2023-11-22T08:41:14;11.90;;;6.80;;
72483;SDS011;74199;52.014;5.430;2023-11-22T08:43:41;11.25;;;6.93;;
72483;SDS011;74199;52.014;5.430;2023-11-22T08:46:08;11.25;;;7.32;;
72483;SDS011;74199;52.014;5.430;2023-11-22T08:48:40;14.82;;;7.57;;
72483;SDS011;74199;52.014;5.430;2023-11-22T08:51:09;11.07;;;6.90;;
72483;SDS011;74199;52.014;5.430;2023-11-22T08:53:37;14.77;;;7.32;;
72483;SDS011;74199;52.014;5.430;2023-11-22T08:56:04;10.60;;;7.13;;
72483;SDS011;74199;52.014;5.430;2023-11-22T08:58:32;11.95;;;7.32;;
72483;SDS011;74199;52.014;5.430;2023-11-22T09:01:00;10.48;;;6.72;;
72483;SDS011;74199;52.014;5.430;2023-11-22T09:03:27;10.52;;;6.90;;
72483;SDS011;74199;52.014;5.430;2023-11-22T09:05:55;12.20;;;7.05;;
72483;SDS011;74199;52.014;5.430;2023-11-22T09:08:22;11.70;;;7.15;;
72483;SDS011;74199;52.014;5.430;2023-11-22T09:10:53;10.73;;;6.82;;
72483;SDS011;74199;52.014;5.430;2023-11-22T09:13:21;11.43;;;7.40;;
72483;SDS011;74199;52.014;5.430;2023-11-22T09:15:49;11.98;;;7.25;;
72483;SDS011;74199;52.014;5.430;2023-11-22T09:18:16;14.43;;;7.10;;
72483;SDS011;74199;52.014;5.430;2023-11-22T09:20:43;12.38;;;6.75;;
72483;SDS011;74199;52.014;5.430;2023-11-22T09:23:11;11.43;;;7.10;;
72483;SDS011;74199;52.014;5.430;2023-11-22T09:25:40;13.27;;;7.35;;
72483;SDS011;74199;52.014;5.430;2023-11-22T09:28:07;14.07;;;7.78;;
72483;SDS011;74199;52.014;5.430;2023-11-22T09:30:35;11.55;;;7.20;;
72483;SDS011;74199;52.014;5.430;2023-11-22T09:33:05;11.57;;;7.40;;
72483;SDS011;74199;52.014;5.430;2023-11-22T09:35:35;11.48;;;7.40;;
72483;SDS011;74199;52.014;5.430;2023-11-22T09:38:04;12.68;;;7.60;;
72483;SDS011;74199;52.014;5.430;2023-11-22T09:40:42;14.73;;;7.68;;
72483;SDS011;74199;52.014;5.430;2023-11-22T09:43:10;11.25;;;7.13;;
72483;SDS011;74199;52.014;5.430;2023-11-22T09:45:38;12.00;;;6.70;;
72483;SDS011;74199;52.014;5.430;2023-11-22T09:48:16;11.00;;;6.18;;
72483;SDS011;74199;52.014;5.430;2023-11-22T09:50:49;10.48;;;6.47;;
72483;SDS011;74199;52.014;5.430;2023-11-22T09:56:30;10.30;;;6.10;;
72483;SDS011;74199;52.014;5.430;2023-11-22T09:58:59;13.25;;;7.35;;
72483;SDS011;74199;52.014;5.430;2023-11-22T10:01:27;10.18;;;6.75;;
72483;SDS011;74199;52.014;5.430;2023-11-22T10:03:57;11.30;;;7.10;;
72483;SDS011;74199;52.014;5.430;2023-11-22T10:06:26;11.07;;;7.57;;
72483;SDS011;74199;52.014;5.430;2023-11-22T10:08:56;13.57;;;7.53;;
72483;SDS011;74199;52.014;5.430;2023-11-22T10:11:23;12.60;;;6.68;;
72483;SDS011;74199;52.014;5.430;2023-11-22T10:13:51;12.65;;;7.43;;
72483;SDS011;74199;52.014;5.430;2023-11-22T10:16:18;12.80;;;7.75;;
72483;SDS011;74199;52.014;5.430;2023-11-22T10:18:48;9.80;;;6.65;;
72483;SDS011;74199;52.014;5.430;2023-11-22T10:21:19;17.45;;;8.10;;
72483;SDS011;74199;52.014;5.430;2023-11-22T10:23:56;11.45;;;6.60;;
72483;SDS011;74199;52.014;5.430;2023-11-22T10:26:26;11.23;;;6.57;;
72483;SDS011;74199;52.014;5.430;2023-11-22T10:28:56;11.55;;;6.85;;
72483;SDS011;74199;52.014;5.430;2023-11-22T10:31:24;11.43;;;7.25;;
72483;SDS011;74199;52.014;5.430;2023-11-22T10:33:52;11.50;;;6.63;;
72483;SDS011;74199;52.014;5.430;2023-11-22T10:36:22;11.20;;;6.78;;
72483;SDS011;74199;52.014;5.430;2023-11-22T10:38:49;9.57;;;6.47;;
72483;SDS011;74199;52.014;5.430;2023-11-22T10:41:20;8.65;;;5.85;;
72483;SDS011;74199;52.014;5.430;2023-11-22T10:43:50;10.38;;;5.45;;
72483;SDS011;74199;52.014;5.430;2023-11-22T10:46:24;11.55;;;5.57;;
72483;SDS011;74199;52.014;5.430;2023-11-22T10:48:55;9.70;;;6.03;;
72483;SDS011;74199;52.014;5.430;2023-11-22T10:51:23;9.80;;;6.50;;
72483;SDS011;74199;52.014;5.430;2023-11-22T10:54:04;13.32;;;5.78;;
72483;SDS011;74199;52.014;5.430;2023-11-22T10:56:36;11.35;;;5.75;;
72483;SDS011;74199;52.014;5.430;2023-11-22T10:59:06;8.50;;;5.22;;
72483;SDS011;74199;52.014;5.430;2023-11-22T11:01:43;10.60;;;5.90;;
72483;SDS011;74199;52.014;5.430;2023-11-22T11:04:16;11.30;;;5.75;;
72483;SDS011;74199;52.014;5.430;2023-11-22T11:06:54;10.07;;;5.88;;
72483;SDS011;74199;52.014;5.430;2023-11-22T11:09:22;10.85;;;6.55;;
72483;SDS011;74199;52.014;5.430;2023-11-22T11:11:59;9.75;;;6.38;;
72483;SDS011;74199;52.014;5.430;2023-11-22T11:14:27;10.65;;;5.68;;
72483;SDS011;74199;52.014;5.430;2023-11-22T11:16:55;12.73;;;5.65;;
72483;SDS011;74199;52.014;5.430;2023-11-22T11:19:25;10.00;;;5.75;;
72483;SDS011;74199;52.014;5.430;2023-11-22T11:21:53;8.07;;;5.70;;
72483;SDS011;74199;52.014;5.430;2023-11-22T11:24:23;11.85;;;5.20;;
72483;SDS011;74199;52.014;5.430;2023-11-22T11:26:50;8.25;;;5.20;;
72483;SDS011;74199;52.014;5.430;2023-11-22T11:29:35;11.45;;;5.25;;
72483;SDS011;74199;52.014;5.430;2023-11-22T11:32:10;11.02;;;5.80;;
72483;SDS011;74199;52.014;5.430;2023-11-22T11:34:46;11.32;;;5.63;;
72483;SDS011;74199;52.014;5.430;2023-11-22T11:37:15;18.63;;;9.65;;
72483;SDS011;74199;52.014;5.430;2023-11-22T11:39:44;18.25;;;7.38;;
72483;SDS011;74199;52.014;5.430;2023-11-22T11:42:12;14.15;;;6.93;;
72483;SDS011;74199;52.014;5.430;2023-11-22T11:47:33;10.75;;;7.20;;
72483;SDS011;74199;52.014;5.430;2023-11-22T11:50:00;12.40;;;7.60;;
72483;SDS011;74199;52.014;5.430;2023-11-22T11:52:27;11.25;;;7.20;;
72483;SDS011;74199;52.014;5.430;2023-11-22T11:54:57;12.82;;;6.93;;
72483;SDS011;74199;52.014;5.430;2023-11-22T11:57:25;13.60;;;8.27;;
72483;SDS011;74199;52.014;5.430;2023-11-22T11:59:52;12.30;;;8.02;;
72483;SDS011;74199;52.014;5.430;2023-11-22T12:02:21;14.43;;;9.20;;
72483;SDS011;74199;52.014;5.430;2023-11-22T12:04:48;15.60;;;9.70;;
72483;SDS011;74199;52.014;5.430;2023-11-22T12:07:15;16.25;;;9.20;;
72483;SDS011;74199;52.014;5.430;2023-11-22T12:09:42;16.25;;;9.75;;
72483;SDS011;74199;52.014;5.430;2023-11-22T12:12:09;19.75;;;10.43;;
72483;SDS011;74199;52.014;5.430;2023-11-22T12:14:36;19.90;;;10.15;;
72483;SDS011;74199;52.014;5.430;2023-11-22T12:17:03;16.25;;;10.23;;
72483;SDS011;74199;52.014;5.430;2023-11-22T12:19:32;16.90;;;9.32;;
72483;SDS011;74199;52.014;5.430;2023-11-22T12:22:00;16.75;;;9.82;;
72483;SDS011;74199;52.014;5.430;2023-11-22T12:24:27;19.08;;;10.73;;
72483;SDS011;74199;52.014;5.430;2023-11-22T12:26:54;16.42;;;9.88;;
72483;SDS011;74199;52.014;5.430;2023-11-22T12:29:23;16.40;;;10.43;;
72483;SDS011;74199;52.014;5.430;2023-11-22T12:31:50;18.40;;;10.88;;
72483;SDS011;74199;52.014;5.430;2023-11-22T12:34:19;18.52;;;10.50;;
72483;SDS011;74199;52.014;5.430;2023-11-22T12:36:49;17.88;;;10.27;;
72483;SDS011;74199;52.014;5.430;2023-11-22T12:39:16;18.30;;;10.43;;
72483;SDS011;74199;52.014;5.430;2023-11-22T12:41:52;18.50;;;10.73;;
72483;SDS011;74199;52.014;5.430;2023-11-22T12:44:32;17.85;;;10.55;;
72483;SDS011;74199;52.014;5.430;2023-11-22T12:47:14;23.92;;;11.70;;
72483;SDS011;74199;52.014;5.430;2023-11-22T12:49:43;16.25;;;9.88;;
72483;SDS011;74199;52.014;5.430;2023-11-22T12:52:12;17.23;;;8.95;;
72483;SDS011;74199;52.014;5.430;2023-11-22T12:54:39;12.50;;;8.25;;
72483;SDS011;74199;52.014;5.430;2023-11-22T12:57:10;14.70;;;8.63;;
72483;SDS011;74199;52.014;5.430;2023-11-22T12:59:39;17.55;;;10.75;;
72483;SDS011;74199;52.014;5.430;2023-11-22T13:02:07;16.33;;;10.50;;
72483;SDS011;74199;52.014;5.430;2023-11-22T13:04:34;16.60;;;9.82;;
72483;SDS011;74199;52.014;5.430;2023-11-22T13:07:02;16.80;;;9.70;;
72483;SDS011;74199;52.014;5.430;2023-11-22T13:09:29;17.83;;;9.85;;
72483;SDS011;74199;52.014;5.430;2023-11-22T13:11:58;16.23;;;9.85;;
72483;SDS011;74199;52.014;5.430;2023-11-22T13:14:25;16.88;;;10.05;;
72483;SDS011;74199;52.014;5.430;2023-11-22T13:16:58;16.88;;;9.95;;
72483;SDS011;74199;52.014;5.430;2023-11-22T13:19:25;15.38;;;9.60;;
72483;SDS011;74199;52.014;5.430;2023-11-22T13:21:52;15.82;;;9.65;;
72483;SDS011;74199;52.014;5.430;2023-11-22T13:24:19;18.02;;;9.23;;
72483;SDS011;74199;52.014;5.430;2023-11-22T13:26:47;13.55;;;9.02;;
72483;SDS011;74199;52.014;5.430;2023-11-22T13:29:14;13.73;;;9.32;;
72483;SDS011;74199;52.014;5.430;2023-11-22T13:31:41;14.70;;;9.30;;
72483;SDS011;74199;52.014;5.430;2023-11-22T13:34:08;15.35;;;9.15;;
72483;SDS011;74199;52.014;5.430;2023-11-22T13:36:35;17.42;;;9.98;;
72483;SDS011;74199;52.014;5.430;2023-11-22T13:39:02;18.25;;;9.23;;
72483;SDS011;74199;52.014;5.430;2023-11-22T13:41:29;14.43;;;9.32;;
72483;SDS011;74199;52.014;5.430;2023-11-22T13:43:56;19.55;;;9.68;;
72483;SDS011;74199;52.014;5.430;2023-11-22T13:46:23;16.08;;;8.90;;
72483;SDS011;74199;52.014;5.430;2023-11-22T13:48:50;13.48;;;8.75;;
72483;SDS011;74199;52.014;5.430;2023-11-22T13:51:17;16.13;;;9.00;;
72483;SDS011;74199;52.014;5.430;2023-11-22T13:53:44;14.27;;;8.32;;
72483;SDS011;74199;52.014;5.430;2023-11-22T13:56:16;17.13;;;10.65;;
72483;SDS011;74199;52.014;5.430;2023-11-22T13:58:44;16.27;;;10.43;;
72483;SDS011;74199;52.014;5.430;2023-11-22T14:01:11;14.57;;;8.80;;
72483;SDS011;74199;52.014;5.430;2023-11-22T14:03:44;15.45;;;9.90;;
72483;SDS011;74199;52.014;5.430;2023-11-22T14:06:11;15.70;;;10.40;;
72483;SDS011;74199;52.014;5.430;2023-11-22T14:08:40;17.80;;;10.20;;
72483;SDS011;74199;52.014;5.430;2023-11-22T14:11:08;18.10;;;10.50;;
72483;SDS011;74199;52.014;5.430;2023-11-22T14:13:35;15.63;;;10.32;;
72483;SDS011;74199;52.014;5.430;2023-11-22T14:16:02;15.15;;;9.48;;
72483;SDS011;74199;52.014;5.430;2023-11-22T14:18:31;17.05;;;9.63;;
72483;SDS011;74199;52.014;5.430;2023-11-22T14:20:58;16.20;;;9.82;;
72483;SDS011;74199;52.014;5.430;2023-11-22T14:23:28;15.13;;;9.13;;
72483;SDS011;74199;52.014;5.430;2023-11-22T14:25:55;14.20;;;9.13;;
72483;SDS011;74199;52.014;5.430;2023-11-22T14:28:22;14.13;;;8.93;;
72483;SDS011;74199;52.014;5.430;2023-11-22T14:30:49;16.13;;;9.70;;
72483;SDS011;74199;52.014;5.430;2023-11-22T14:33:21;14.80;;;9.63;;
72483;SDS011;74199;52.014;5.430;2023-11-22T14:35:49;14.18;;;8.80;;
72483;SDS011;74199;52.014;5.430;2023-11-22T14:38:16;15.45;;;9.93;;
72483;SDS011;74199;52.014;5.430;2023-11-22T14:40:44;21.50;;;13.57;;
72483;SDS011;74199;52.014;5.430;2023-11-22T14:43:12;24.30;;;13.45;;
72483;SDS011;74199;52.014;5.430;2023-11-22T14:45:40;20.00;;;12.85;;
72483;SDS011;74199;52.014;5.430;2023-11-22T14:48:07;20.60;;;12.70;;
72483;SDS011;74199;52.014;5.430;2023-11-22T14:50:35;17.23;;;12.00;;
72483;SDS011;74199;52.014;5.430;2023-11-22T14:53:02;20.08;;;12.35;;
72483;SDS011;74199;52.014;5.430;2023-11-22T14:55:29;19.98;;;12.88;;